Time;durP1;ratioP1;P1;durP2;ratioP2;P2;SDS_P1;SDS_P2;PMS_P1;PMS_P2;Temp;Humidity;BMP_temperature;BMP_pressure;BME280_temperature;BME280_humidity;BME280_pressure;Samples;Min_cycle;Max_cycle;Signal;HPM_P1;HPM_P2
2023/10/16 00:02:43;;;;;;;3.33;0.95;;;24.10;88.60;;;;;;5105789;28;20195;-80
2023/10/16 00:05:25;;;;;;;2.20;0.80;;;24.40;86.00;;;;;;5119582;28;20569;-80
2023/10/16 00:08:16;;;;;;;1.67;0.52;;;24.50;84.70;;;;;;5121496;28;20225;-79
2023/10/16 00:11:08;;;;;;;1.38;0.40;;;24.50;80.40;;;;;;5132227;28;20213;-79
2023/10/16 00:16:44;;;;;;;0.93;0.38;;;24.40;78.50;;;;;;5094553;28;20280;-80
2023/10/16 00:19:33;;;;;;;1.98;0.40;;;24.50;75.20;;;;;;5093599;28;20192;-80
2023/10/16 00:22:10;;;;;;;2.42;0.43;;;24.60;73.80;;;;;;5104908;28;20199;-79
2023/10/16 00:24:49;;;;;;;1.70;0.40;;;24.60;73.50;;;;;;5107693;28;20700;-79
2023/10/16 00:30:17;;;;;;;1.60;0.60;;;24.70;71.50;;;;;;5111142;28;20255;-81
2023/10/16 00:33:01;;;;;;;1.05;0.60;;;24.60;68.70;;;;;;5115615;28;20210;-81
2023/10/16 00:36:16;;;;;;;1.90;0.50;;;24.70;70.90;;;;;;5115735;28;20255;-82
2023/10/16 00:38:51;;;;;;;1.92;0.57;;;24.80;67.70;;;;;;5110923;28;20241;-82
2023/10/16 00:41:46;;;;;;;2.25;0.50;;;24.80;68.10;;;;;;5095840;28;20203;-81
2023/10/16 00:44:33;;;;;;;1.27;0.40;;;24.80;68.50;;;;;;5095153;28;20207;-81
2023/10/16 00:50:23;;;;;;;2.65;0.45;;;24.90;65.40;;;;;;5098196;28;20191;-80
2023/10/16 00:52:59;;;;;;;3.55;0.40;;;24.90;66.30;;;;;;5098568;28;20210;-80
2023/10/16 00:58:36;;;;;;;2.30;0.43;;;25.20;67.20;;;;;;5090634;28;20199;-81
2023/10/16 01:04:48;;;;;;;2.63;0.43;;;25.20;64.40;;;;;;5095702;28;20183;-81
2023/10/16 01:07:23;;;;;;;2.95;0.32;;;25.00;64.30;;;;;;5103438;28;20243;-81
2023/10/16 01:09:55;;;;;;;2.28;0.28;;;25.10;64.30;;;;;;5120484;28;20216;-81
2023/10/16 01:12:33;;;;;;;3.38;0.30;;;25.10;64.10;;;;;;5122882;28;20202;-80
2023/10/16 01:15:09;;;;;;;0.40;0.32;;;24.90;64.90;;;;;;5125410;28;20194;-80
2023/10/16 01:17:41;;;;;;;2.05;0.35;;;24.90;65.20;;;;;;5110773;28;20191;-82
2023/10/16 01:20:53;;;;;;;0.85;0.32;;;24.80;65.20;;;;;;5096891;28;20183;-80
2023/10/16 01:23:26;;;;;;;1.80;0.60;;;24.90;66.20;;;;;;5110647;28;20285;-81
2023/10/16 01:26:05;;;;;;;0.57;0.45;;;24.90;65.40;;;;;;5111472;28;20202;-81
2023/10/16 01:28:51;;;;;;;3.55;0.85;;;25.00;63.50;;;;;;5103521;28;20202;-83
2023/10/16 01:31:59;;;;;;;2.33;1.30;;;24.80;62.20;;;;;;5102063;28;20256;-81
2023/10/16 01:34:48;;;;;;;0.47;0.32;;;24.90;62.90;;;;;;5097377;28;20222;-80
2023/10/16 01:37:30;;;;;;;2.00;0.57;;;25.20;62.10;;;;;;5107528;28;20205;-77
2023/10/16 01:40:28;;;;;;;2.80;0.63;;;25.10;60.90;;;;;;5099681;28;20666;-81
2023/10/16 01:46:13;;;;;;;1.90;0.50;;;25.60;60.30;;;;;;5101095;28;20204;-80
2023/10/16 01:49:00;;;;;;;2.15;0.30;;;25.60;59.70;;;;;;5108284;28;20202;-79
2023/10/16 01:54:44;;;;;;;0.80;0.30;;;25.70;58.50;;;;;;5116179;28;20219;-80
2023/10/16 01:57:34;;;;;;;0.68;0.32;;;26.00;58.00;;;;;;5118686;28;20263;-79
2023/10/16 02:00:16;;;;;;;2.45;0.40;;;26.00;57.00;;;;;;5097878;28;20557;-80
2023/10/16 02:02:50;;;;;;;1.20;0.35;;;26.00;55.90;;;;;;5099351;28;20270;-80
2023/10/16 02:05:32;;;;;;;1.85;0.40;;;25.90;55.90;;;;;;5099782;28;20668;-80
2023/10/16 02:08:14;;;;;;;1.67;0.22;;;26.10;54.30;;;;;;5102380;28;20223;-80
2023/10/16 02:10:48;;;;;;;0.85;0.45;;;26.20;55.30;;;;;;5103083;28;20239;-81
2023/10/16 02:15:59;;;;;;;1.05;0.38;;;26.70;55.80;;;;;;5054639;22;20323;-80
2023/10/16 02:18:36;;;;;;;2.03;0.40;;;26.90;53.50;;;;;;5047588;28;20209;-79
2023/10/16 02:21:11;;;;;;;0.32;0.22;;;26.60;52.00;;;;;;5053104;28;20196;-81
2023/10/16 02:23:50;;;;;;;1.92;0.28;;;26.40;51.70;;;;;;5056578;28;20296;-81
2023/10/16 02:27:02;;;;;;;0.65;0.20;;;26.20;53.30;;;;;;5048082;28;20205;-80
2023/10/16 02:30:14;;;;;;;2.95;0.40;;;25.70;53.70;;;;;;5054589;28;20290;-79
2023/10/16 02:33:35;;;;;;;1.42;0.30;;;25.40;53.80;;;;;;5042058;28;20200;-80
2023/10/16 02:36:07;;;;;;;2.15;0.40;;;25.40;54.40;;;;;;5060638;28;20200;-80
2023/10/16 02:41:55;;;;;;;6.55;1.00;;;25.80;53.70;;;;;;5069653;28;20256;-80
2023/10/16 02:44:47;;;;;;;0.68;0.30;;;25.70;52.90;;;;;;5044312;28;20204;-79
2023/10/16 02:47:25;;;;;;;2.13;0.80;;;25.70;53.30;;;;;;5070873;28;20207;-80
2023/10/16 02:50:42;;;;;;;4.43;0.38;;;25.90;52.40;;;;;;5053845;28;20200;-81
2023/10/16 02:53:55;;;;;;;2.55;0.35;;;26.00;49.20;;;;;;5047286;28;20287;-80
2023/10/16 02:56:42;;;;;;;2.58;0.50;;;26.00;48.30;;;;;;5078704;28;20211;-80
2023/10/16 02:59:20;;;;;;;1.13;0.38;;;26.40;48.30;;;;;;5066362;28;20477;-81
2023/10/16 03:02:17;;;;;;;1.08;0.40;;;26.30;48.10;;;;;;5062699;28;20212;-79
2023/10/16 03:11:56;;;;;;;2.75;0.43;;;26.30;45.10;;;;;;5054913;28;20197;-80
2023/10/16 03:27:48;;;;;;;3.55;0.40;;;26.70;45.40;;;;;;5049681;28;20196;-79
2023/10/16 03:30:36;;;;;;;3.42;0.30;;;27.00;45.80;;;;;;5074817;28;20191;-78
2023/10/16 03:33:13;;;;;;;2.88;0.30;;;27.00;45.80;;;;;;5063702;28;20201;-79
2023/10/16 03:36:09;;;;;;;2.13;0.20;;;26.80;46.60;;;;;;5052097;28;20207;-80
2023/10/16 03:41:32;;;;;;;2.60;0.20;;;27.00;44.50;;;;;;5060974;28;20196;-81
2023/10/16 03:44:14;;;;;;;2.10;0.32;;;27.30;43.90;;;;;;5033677;28;20243;-79
2023/10/16 03:46:47;;;;;;;2.70;0.47;;;27.30;43.10;;;;;;5048794;28;20611;-80
2023/10/16 03:49:20;;;;;;;0.93;0.32;;;27.00;43.30;;;;;;5053853;28;20200;-79
2023/10/16 03:51:57;;;;;;;1.63;0.40;;;27.00;42.30;;;;;;5037545;28;20628;-79
2023/10/16 03:54:35;;;;;;;0.17;0.15;;;26.30;42.30;;;;;;5033846;28;20311;-80
2023/10/16 03:57:11;;;;;;;1.45;0.30;;;25.90;42.40;;;;;;5052463;28;20659;-80
2023/10/16 03:59:43;;;;;;;2.88;0.40;;;25.60;43.50;;;;;;5051540;28;20672;-79
2023/10/16 04:02:19;;;;;;;5.10;0.40;;;24.90;47.80;;;;;;5053732;28;20676;-79
2023/10/16 04:04:54;;;;;;;6.93;0.77;;;24.30;57.30;;;;;;5044033;28;20209;-80
2023/10/16 04:07:27;;;;;;;6.38;0.60;;;22.60;74.00;;;;;;5050641;28;20279;-79
2023/10/16 04:10:17;;;;;;;4.68;0.47;;;21.50;91.40;;;;;;5055344;28;20192;-79
2023/10/16 04:12:53;;;;;;;5.00;0.50;;;20.90;95.10;;;;;;5048907;28;20421;-78
2023/10/16 04:15:59;;;;;;;4.57;0.40;;;20.80;96.90;;;;;;5043468;28;20645;-78
2023/10/16 04:18:29;;;;;;;2.60;0.40;;;20.70;98.10;;;;;;5048016;28;20196;-78
2023/10/16 04:24:19;;;;;;;4.00;0.57;;;20.80;96.80;;;;;;5021053;28;20229;-78
2023/10/16 04:27:29;;;;;;;0.57;0.38;;;21.10;96.30;;;;;;5056421;28;20757;-79
2023/10/16 04:30:32;;;;;;;1.27;0.40;;;21.20;94.00;;;;;;5037541;28;20670;-79
2023/10/16 04:38:53;;;;;;;2.65;0.35;;;20.10;99.90;;;;;;5070457;28;20207;-79
2023/10/16 04:44:49;;;;;;;1.58;0.32;;;19.90;99.90;;;;;;5050998;28;20191;-78
2023/10/16 04:47:20;;;;;;;2.92;0.20;;;19.80;99.90;;;;;;5071523;28;20196;-77
2023/10/16 04:50:06;;;;;;;1.30;0.20;;;19.50;99.90;;;;;;5052220;28;20200;-79
2023/10/16 05:07:17;;;;;;;0.25;0.25;;;19.80;99.90;;;;;;4950919;29;20312;-77
2023/10/16 05:18:20;;;;;;;0.85;0.25;;;18.60;99.90;;;;;;5050673;28;20220;-77
2023/10/16 05:21:19;;;;;;;1.30;0.30;;;18.60;99.90;;;;;;5056436;28;20558;-78
2023/10/16 06:14:35;;;;;;;0.43;0.43;;;18.90;91.10;;;;;;5056969;28;20239;-79
2023/10/16 06:17:15;;;;;;;0.38;0.38;;;19.00;87.90;;;;;;5059354;28;20187;-79
2023/10/16 06:19:47;;;;;;;1.00;0.60;;;18.90;79.80;;;;;;5052580;28;20201;-78
2023/10/16 06:22:19;;;;;;;0.68;0.43;;;18.90;76.90;;;;;;5059419;28;20203;-79
2023/10/16 06:24:50;;;;;;;1.63;0.70;;;19.00;77.30;;;;;;5061178;28;20204;-79
2023/10/16 06:27:33;;;;;;;1.83;0.70;;;19.20;75.90;;;;;;5063062;28;20209;-79
2023/10/16 06:30:05;;;;;;;1.25;0.70;;;19.30;76.60;;;;;;5066108;28;20224;-79
2023/10/16 06:32:41;;;;;;;0.95;0.40;;;19.40;73.20;;;;;;5065770;28;20197;-78
2023/10/16 06:35:16;;;;;;;0.80;0.57;;;19.50;70.80;;;;;;5075420;28;20216;-78
2023/10/16 06:37:51;;;;;;;2.10;0.90;;;19.90;67.70;;;;;;5067536;28;20206;-77
2023/10/16 06:40:26;;;;;;;1.10;0.70;;;21.20;64.70;;;;;;5046778;28;20655;-78
2023/10/16 06:43:13;;;;;;;1.20;1.10;;;21.90;60.80;;;;;;5035996;28;20193;-77
2023/10/16 06:45:54;;;;;;;1.00;0.55;;;21.30;57.30;;;;;;5049532;28;20642;-77
2023/10/16 06:48:28;;;;;;;1.20;0.43;;;21.70;57.50;;;;;;5037281;28;20193;-76
2023/10/16 06:51:05;;;;;;;1.65;0.20;;;21.60;57.50;;;;;;5039902;28;20240;-78
2023/10/16 06:53:36;;;;;;;1.85;0.80;;;21.30;57.30;;;;;;5038779;28;20196;-78
2023/10/16 06:56:08;;;;;;;0.65;0.30;;;21.00;55.80;;;;;;5044831;28;20205;-76
2023/10/16 06:58:58;;;;;;;1.40;0.28;;;21.50;56.80;;;;;;5046574;28;20591;-78
2023/10/16 07:01:34;;;;;;;0.82;0.30;;;22.30;53.10;;;;;;5041502;28;20711;-79
2023/10/16 07:04:05;;;;;;;1.75;0.30;;;22.90;52.40;;;;;;5049071;28;20208;-80
2023/10/16 07:06:37;;;;;;;1.23;0.43;;;23.10;52.70;;;;;;5040457;28;20564;-80
2023/10/16 07:09:09;;;;;;;1.20;0.85;;;23.50;53.10;;;;;;5052250;28;20196;-79
2023/10/16 07:11:42;;;;;;;3.03;1.10;;;23.90;52.00;;;;;;5041018;28;20272;-79
2023/10/16 07:14:24;;;;;;;0.77;0.30;;;23.90;51.90;;;;;;5042360;28;20237;-81
2023/10/16 07:16:56;;;;;;;3.17;0.50;;;24.10;53.10;;;;;;5042540;28;20548;-79
2023/10/16 07:19:34;;;;;;;2.35;0.80;;;24.10;52.90;;;;;;5052120;28;20232;-78
2023/10/16 07:22:10;;;;;;;1.85;0.50;;;23.20;58.10;;;;;;5034846;28;20201;-77
2023/10/16 07:24:43;;;;;;;1.95;0.70;;;22.10;62.90;;;;;;5034604;28;20224;-79
2023/10/16 07:27:15;;;;;;;2.03;0.63;;;21.70;66.10;;;;;;5056120;28;20197;-78
2023/10/16 07:29:51;;;;;;;2.30;0.80;;;21.20;66.70;;;;;;5056103;28;20208;-78
2023/10/16 07:32:23;;;;;;;2.20;0.50;;;20.80;69.30;;;;;;5059474;28;20200;-79
2023/10/16 07:34:54;;;;;;;2.15;0.68;;;20.70;68.30;;;;;;5063891;28;20255;-78
2023/10/16 07:37:29;;;;;;;1.10;0.55;;;20.30;70.40;;;;;;5069527;28;20221;-79
2023/10/16 07:40:07;;;;;;;1.75;0.68;;;20.20;71.70;;;;;;5076138;28;20208;-79
2023/10/16 07:42:42;;;;;;;1.92;0.70;;;20.00;73.00;;;;;;5037385;28;20205;-78
2023/10/16 07:45:19;;;;;;;2.35;0.90;;;19.90;72.60;;;;;;5054292;28;20269;-77
2023/10/16 07:48:00;;;;;;;2.45;1.00;;;19.70;74.80;;;;;;5052237;28;20209;-77
2023/10/16 07:50:33;;;;;;;2.35;0.70;;;19.60;74.60;;;;;;5033700;28;20220;-78
2023/10/16 07:53:06;;;;;;;2.53;0.70;;;19.60;73.60;;;;;;5035104;28;20268;-78
2023/10/16 07:55:50;;;;;;;4.90;1.02;;;19.50;74.60;;;;;;5052915;28;20729;-78
2023/10/16 07:58:33;;;;;;;2.20;0.93;;;19.50;75.20;;;;;;5053822;28;20283;-78
2023/10/16 08:01:36;;;;;;;1.38;0.90;;;19.50;74.60;;;;;;5057980;28;20268;-77
2023/10/16 08:04:19;;;;;;;1.63;0.70;;;19.30;74.50;;;;;;5041009;28;20192;-79
2023/10/16 08:06:53;;;;;;;3.17;0.60;;;19.10;75.40;;;;;;5056737;28;20247;-79
2023/10/16 08:09:48;;;;;;;1.98;0.80;;;19.10;76.90;;;;;;5056564;28;20212;-79
2023/10/16 08:12:34;;;;;;;3.20;0.70;;;19.10;77.10;;;;;;5055439;28;20561;-78
2023/10/16 08:15:55;;;;;;;2.10;0.90;;;19.10;77.30;;;;;;5054228;28;20225;-79
2023/10/16 08:18:36;;;;;;;4.80;2.50;;;19.00;78.10;;;;;;5047381;28;20205;-79
2023/10/16 08:21:08;;;;;;;2.67;1.23;;;19.00;78.40;;;;;;5052942;28;20282;-80
2023/10/16 08:23:45;;;;;;;5.63;1.20;;;19.00;78.40;;;;;;5050290;28;20679;-79
2023/10/16 08:26:27;;;;;;;1.67;1.30;;;18.90;79.80;;;;;;5053999;28;20215;-80
2023/10/16 08:29:11;;;;;;;1.20;1.00;;;18.90;79.60;;;;;;5054184;28;20690;-78
2023/10/16 08:31:47;;;;;;;1.45;0.70;;;18.70;80.80;;;;;;5053891;28;20196;-79
2023/10/16 08:34:35;;;;;;;1.80;0.98;;;18.70;80.90;;;;;;5055199;28;20367;-78
2023/10/16 08:37:08;;;;;;;1.70;0.80;;;18.70;82.50;;;;;;5053599;28;20208;-78
2023/10/16 08:39:47;;;;;;;4.03;1.20;;;18.70;83.20;;;;;;5058088;28;20192;-79
2023/10/16 08:42:21;;;;;;;1.90;0.80;;;18.80;83.90;;;;;;5043247;28;20232;-79
2023/10/16 08:44:57;;;;;;;3.00;1.30;;;18.80;85.30;;;;;;5070447;28;20308;-79
2023/10/16 08:47:46;;;;;;;6.88;2.00;;;18.80;86.00;;;;;;5060305;28;20582;-80
2023/10/16 08:50:40;;;;;;;3.13;0.80;;;18.60;87.00;;;;;;5065313;28;20187;-78
2023/10/16 08:53:30;;;;;;;2.20;1.38;;;18.50;86.80;;;;;;5070102;28;20197;-78
2023/10/16 08:56:12;;;;;;;4.38;1.42;;;18.30;88.20;;;;;;5044891;28;20580;-79
2023/10/16 08:58:44;;;;;;;2.15;1.23;;;18.10;89.40;;;;;;5041601;28;20224;-80
2023/10/16 09:01:19;;;;;;;2.25;0.95;;;17.90;90.80;;;;;;5055571;28;20313;-79
2023/10/16 09:04:05;;;;;;;2.92;0.73;;;17.70;92.50;;;;;;5056452;28;20551;-80
2023/10/16 09:06:42;;;;;;;2.03;0.75;;;17.30;92.50;;;;;;5054994;28;20675;-79
2023/10/16 09:09:17;;;;;;;1.25;0.63;;;16.90;93.40;;;;;;5055782;28;20204;-80
2023/10/16 09:11:49;;;;;;;1.98;1.05;;;16.60;94.60;;;;;;5049177;28;20242;-80
2023/10/16 09:14:26;;;;;;;2.67;1.30;;;16.70;96.30;;;;;;5055826;28;20738;-79
2023/10/16 09:17:06;;;;;;;1.45;0.90;;;16.60;99.40;;;;;;5056371;28;20663;-80
2023/10/16 09:19:46;;;;;;;1.75;1.40;;;16.60;99.90;;;;;;5057197;28;20206;-81
2023/10/16 09:22:39;;;;;;;2.33;0.60;;;16.50;99.90;;;;;;5057649;28;20828;-81
2023/10/16 09:25:16;;;;;;;2.47;1.25;;;16.10;99.90;;;;;;5048798;28;20663;-80
2023/10/16 09:27:52;;;;;;;1.85;0.90;;;15.90;99.90;;;;;;5067750;28;20209;-79
2023/10/16 09:30:33;;;;;;;4.63;0.77;;;15.90;99.90;;;;;;5052394;28;20236;-80
2023/10/16 09:33:06;;;;;;;2.60;0.68;;;15.90;99.90;;;;;;5061863;28;20200;-79
2023/10/16 09:35:43;;;;;;;1.42;0.50;;;15.90;99.90;;;;;;5065163;28;20698;-79
2023/10/16 09:38:23;;;;;;;1.92;0.47;;;15.80;99.90;;;;;;5057621;28;20212;-80
2023/10/16 09:41:37;;;;;;;1.85;0.57;;;15.90;99.90;;;;;;5042033;28;20197;-80
2023/10/16 09:44:07;;;;;;;3.00;2.33;;;16.20;99.90;;;;;;5069311;28;20203;-79
2023/10/16 09:46:55;;;;;;;1.27;0.90;;;16.30;99.90;;;;;;5076982;28;20185;-80
2023/10/16 09:49:28;;;;;;;0.45;0.28;;;16.50;99.90;;;;;;5072070;28;20222;-81
2023/10/16 09:52:04;;;;;;;0.30;0.30;;;16.60;99.90;;;;;;5059300;28;20196;-80
2023/10/16 09:54:39;;;;;;;0.30;0.25;;;16.70;99.90;;;;;;5046249;28;20195;-79
2023/10/16 09:57:27;;;;;;;0.30;0.22;;;16.70;99.90;;;;;;5057312;28;20254;-80
2023/10/16 10:00:23;;;;;;;0.82;0.30;;;16.70;99.90;;;;;;5039884;28;20259;-81
2023/10/16 10:02:58;;;;;;;0.20;0.20;;;16.70;99.90;;;;;;5052559;28;20209;-81
2023/10/16 10:05:41;;;;;;;0.22;0.22;;;16.70;99.90;;;;;;5053460;28;20203;-80
2023/10/16 10:08:39;;;;;;;0.40;0.40;;;16.70;99.90;;;;;;5052182;28;20188;-78
2023/10/16 10:11:23;;;;;;;0.22;0.20;;;16.60;99.90;;;;;;5052953;28;20209;-81
2023/10/16 10:14:26;;;;;;;0.30;0.30;;;16.50;99.90;;;;;;5050002;28;20205;-79
2023/10/16 10:17:03;;;;;;;0.43;0.32;;;16.40;99.90;;;;;;5052980;28;20614;-81
2023/10/16 10:19:37;;;;;;;0.70;0.40;;;16.50;99.90;;;;;;5053439;28;20193;-78
2023/10/16 10:22:17;;;;;;;0.55;0.38;;;16.40;99.90;;;;;;5053530;28;20223;-81
2023/10/16 10:25:11;;;;;;;0.40;0.22;;;16.30;99.90;;;;;;5035724;28;20756;-79
2023/10/16 10:27:51;;;;;;;0.43;0.30;;;16.30;99.90;;;;;;5058332;28;20208;-80
2023/10/16 10:30:34;;;;;;;0.93;0.40;;;16.30;99.90;;;;;;5060057;28;20204;-80
2023/10/16 10:33:10;;;;;;;0.40;0.30;;;16.30;99.90;;;;;;5059964;28;20648;-81
2023/10/16 10:35:51;;;;;;;0.80;0.20;;;16.30;99.90;;;;;;5081549;28;20225;-79
2023/10/16 10:38:30;;;;;;;1.05;0.40;;;16.30;99.90;;;;;;5078392;28;20210;-80
2023/10/16 10:41:18;;;;;;;0.35;0.30;;;16.30;99.90;;;;;;5069304;28;20283;-79
2023/10/16 10:44:03;;;;;;;1.00;0.40;;;16.50;99.90;;;;;;5060084;28;20230;-78
2023/10/16 10:46:49;;;;;;;0.50;0.40;;;16.60;99.90;;;;;;5048968;28;20201;-79
2023/10/16 10:49:20;;;;;;;1.00;0.30;;;16.70;99.90;;;;;;5065103;28;20208;-78
2023/10/16 10:51:53;;;;;;;0.40;0.30;;;16.70;99.90;;;;;;5087960;28;20187;-77
2023/10/16 10:54:28;;;;;;;0.30;0.20;;;16.50;99.90;;;;;;5083514;28;20196;-80
2023/10/16 10:57:07;;;;;;;0.20;0.20;;;16.40;99.90;;;;;;5058980;28;20232;-78
2023/10/16 10:59:55;;;;;;;0.95;0.35;;;16.50;99.90;;;;;;5055237;28;20283;-79
2023/10/16 11:02:51;;;;;;;0.40;0.40;;;16.50;99.90;;;;;;5054316;28;20196;-80
2023/10/16 11:05:30;;;;;;;0.70;0.47;;;16.60;99.90;;;;;;5056709;28;20224;-80
2023/10/16 11:08:25;;;;;;;0.52;0.40;;;16.60;99.90;;;;;;5052653;28;20644;-79
2023/10/16 11:11:03;;;;;;;2.08;0.50;;;16.60;99.90;;;;;;5053091;28;20204;-79
2023/10/16 11:13:47;;;;;;;0.75;0.30;;;16.50;99.90;;;;;;5060298;28;20235;-80
2023/10/16 11:16:30;;;;;;;0.50;0.50;;;16.20;99.90;;;;;;5059763;28;20228;-79
2023/10/16 11:21:47;;;;;;;0.30;0.30;;;16.10;99.90;;;;;;5081173;28;20214;-79
2023/10/16 11:27:05;;;;;;;0.70;0.40;;;16.10;99.90;;;;;;5062972;28;20212;-78
2023/10/16 11:29:46;;;;;;;0.30;0.30;;;16.10;99.90;;;;;;5059118;28;20188;-79
2023/10/16 11:32:28;;;;;;;0.30;0.30;;;16.10;99.90;;;;;;5036165;28;20243;-80
2023/10/16 11:35:13;;;;;;;1.83;0.40;;;16.10;99.90;;;;;;5054049;28;20200;-79
2023/10/16 11:37:55;;;;;;;0.40;0.40;;;16.10;99.90;;;;;;5057444;28;20243;-82
2023/10/16 11:40:31;;;;;;;0.85;0.40;;;16.00;99.90;;;;;;5038664;28;20185;-80
2023/10/16 11:43:05;;;;;;;0.70;0.40;;;16.00;99.90;;;;;;5056425;28;20197;-79
2023/10/16 11:45:38;;;;;;;1.38;0.40;;;15.90;99.90;;;;;;5044561;28;20205;-80
2023/10/16 11:48:31;;;;;;;0.88;0.47;;;15.80;99.90;;;;;;5039839;28;20205;-80
2023/10/16 11:51:07;;;;;;;0.43;0.43;;;15.70;99.90;;;;;;5056595;28;20193;-79
2023/10/16 11:53:43;;;;;;;1.33;0.50;;;15.70;99.90;;;;;;5064590;28;20228;-81
2023/10/16 11:56:18;;;;;;;0.85;0.40;;;15.60;99.90;;;;;;5067302;28;20223;-80
2023/10/16 11:58:50;;;;;;;0.80;0.35;;;15.50;99.90;;;;;;5062608;28;20609;-79
2023/10/16 12:01:25;;;;;;;0.30;0.28;;;15.40;99.90;;;;;;5052119;28;20347;-79
2023/10/16 12:04:04;;;;;;;0.65;0.32;;;15.40;99.90;;;;;;5056862;28;20188;-80
2023/10/16 12:06:36;;;;;;;0.55;0.40;;;15.40;99.90;;;;;;5053348;28;20284;-80
2023/10/16 12:09:13;;;;;;;1.13;0.40;;;15.40;99.90;;;;;;5055201;28;20212;-79
2023/10/16 12:11:45;;;;;;;0.40;0.40;;;15.30;99.90;;;;;;5053437;28;20220;-79
2023/10/16 12:14:30;;;;;;;0.80;0.55;;;15.20;99.90;;;;;;5053760;28;20654;-80
2023/10/16 12:17:11;;;;;;;1.48;0.43;;;15.10;99.90;;;;;;5052555;28;20610;-80
2023/10/16 12:19:51;;;;;;;1.17;0.65;;;15.20;99.90;;;;;;5042859;28;20207;-81
2023/10/16 12:22:24;;;;;;;1.08;0.50;;;15.00;99.90;;;;;;5050774;28;20204;-78
2023/10/16 12:24:56;;;;;;;0.82;0.50;;;15.10;99.90;;;;;;5052621;28;20279;-80
2023/10/16 12:27:32;;;;;;;0.77;0.45;;;15.10;99.90;;;;;;5054214;28;20804;-79
2023/10/16 12:30:03;;;;;;;0.85;0.40;;;15.00;99.90;;;;;;5044969;28;20196;-79
2023/10/16 12:32:37;;;;;;;0.47;0.30;;;14.70;99.90;;;;;;5057178;28;20267;-79
2023/10/16 12:35:17;;;;;;;0.30;0.30;;;14.80;99.90;;;;;;5039773;28;20438;-79
2023/10/16 12:40:39;;;;;;;0.30;0.20;;;14.90;99.90;;;;;;5038047;28;20661;-80
2023/10/16 12:43:15;;;;;;;1.65;0.60;;;14.70;99.90;;;;;;5038832;28;20219;-79
2023/10/16 12:45:46;;;;;;;0.47;0.30;;;14.80;99.90;;;;;;5039077;28;20213;-80
2023/10/16 12:48:17;;;;;;;2.00;0.28;;;14.70;99.90;;;;;;5051846;28;20743;-80
2023/10/16 12:50:53;;;;;;;0.30;0.30;;;14.70;99.90;;;;;;5064804;28;20266;-80
2023/10/16 12:53:33;;;;;;;0.77;0.50;;;14.70;99.90;;;;;;5026044;28;20223;-79
2023/10/16 12:56:05;;;;;;;0.70;0.30;;;14.70;99.90;;;;;;5049245;28;20205;-78
2023/10/16 12:58:38;;;;;;;0.35;0.30;;;14.80;99.90;;;;;;5069704;28;20207;-81
2023/10/16 13:01:21;;;;;;;0.38;0.38;;;14.60;99.90;;;;;;5077111;28;20204;-80
2023/10/16 13:04:13;;;;;;;1.00;0.40;;;14.60;99.90;;;;;;5067562;28;20197;-80
2023/10/16 13:06:46;;;;;;;0.63;0.10;;;14.50;99.90;;;;;;5050820;28;20292;-80
2023/10/16 13:09:18;;;;;;;2.63;0.40;;;14.50;99.90;;;;;;5044466;28;20190;-79
2023/10/16 13:11:55;;;;;;;0.30;0.30;;;14.60;99.90;;;;;;5023511;28;20675;-80
2023/10/16 13:14:35;;;;;;;0.85;0.30;;;14.50;99.90;;;;;;5060354;28;20210;-82
2023/10/16 13:17:09;;;;;;;0.50;0.20;;;14.60;99.90;;;;;;5050197;28;20209;-80
2023/10/16 13:19:47;;;;;;;0.82;0.50;;;14.60;99.90;;;;;;5047790;28;20234;-80
2023/10/16 13:22:23;;;;;;;0.40;0.30;;;14.60;99.90;;;;;;5059938;28;20192;-80
2023/10/16 13:24:55;;;;;;;1.85;0.40;;;14.60;99.90;;;;;;5054207;28;20208;-79
2023/10/16 13:27:25;;;;;;;1.27;0.30;;;14.60;99.90;;;;;;5054970;28;20200;-80
2023/10/16 13:29:56;;;;;;;0.50;0.28;;;14.60;99.90;;;;;;5052087;28;20219;-79
2023/10/16 13:32:28;;;;;;;0.98;0.40;;;14.60;99.90;;;;;;5040615;28;20201;-79
2023/10/16 13:35:12;;;;;;;0.77;0.50;;;14.40;99.90;;;;;;5039281;28;20193;-81
2023/10/16 13:37:58;;;;;;;0.77;0.40;;;14.30;99.90;;;;;;5036537;28;20327;-78
2023/10/16 13:40:36;;;;;;;1.80;0.50;;;14.20;99.90;;;;;;5041783;28;20208;-80
2023/10/16 13:43:18;;;;;;;1.38;0.60;;;14.20;99.90;;;;;;5075653;28;20204;-79
2023/10/16 13:45:55;;;;;;;0.40;0.30;;;14.30;99.90;;;;;;5058784;28;20208;-81
2023/10/16 13:48:50;;;;;;;1.30;0.50;;;14.40;99.90;;;;;;5042187;28;20321;-80
2023/10/16 13:51:23;;;;;;;2.03;0.50;;;14.40;99.90;;;;;;5055215;28;20284;-81
2023/10/16 13:54:01;;;;;;;0.60;0.40;;;14.30;99.90;;;;;;5043851;28;20205;-80
2023/10/16 13:56:39;;;;;;;0.90;0.40;;;14.30;99.90;;;;;;5054886;28;20216;-80
2023/10/16 13:59:12;;;;;;;1.02;0.43;;;14.30;99.90;;;;;;5068796;28;20231;-80
2023/10/16 14:01:56;;;;;;;1.50;0.50;;;14.30;99.90;;;;;;5067106;28;20193;-79
2023/10/16 14:04:35;;;;;;;1.95;0.40;;;14.30;99.90;;;;;;5075632;28;20208;-80
2023/10/16 14:07:15;;;;;;;0.45;0.40;;;14.20;99.90;;;;;;5077284;28;20184;-80
2023/10/16 14:10:00;;;;;;;1.20;0.60;;;14.40;99.90;;;;;;5040782;28;20277;-80
2023/10/16 14:12:37;;;;;;;2.05;0.40;;;14.30;99.90;;;;;;5051589;28;20224;-80
2023/10/16 14:15:19;;;;;;;0.73;0.35;;;14.30;99.90;;;;;;5014766;28;20269;-80
2023/10/16 14:17:59;;;;;;;2.78;0.52;;;14.20;99.90;;;;;;5019913;28;20468;-79
2023/10/16 14:21:08;;;;;;;1.55;0.60;;;14.10;99.90;;;;;;5039738;28;20285;-81
2023/10/16 14:26:56;;;;;;;1.33;0.50;;;14.20;99.90;;;;;;5038475;28;20208;-82
2023/10/16 14:29:39;;;;;;;1.85;0.73;;;14.10;99.90;;;;;;5039203;28;20202;-80
2023/10/16 14:32:20;;;;;;;0.77;0.50;;;14.10;99.90;;;;;;5047101;28;20578;-80
2023/10/16 14:35:24;;;;;;;1.25;0.50;;;14.00;99.90;;;;;;5059539;28;20287;-79
2023/10/16 14:41:04;;;;;;;0.98;0.43;;;13.90;99.90;;;;;;5041660;28;20197;-80
2023/10/16 14:43:39;;;;;;;1.17;0.50;;;13.90;99.90;;;;;;5043421;28;20205;-79
2023/10/16 14:49:09;;;;;;;0.85;0.30;;;13.70;99.90;;;;;;5041888;28;20216;-79
2023/10/16 14:54:59;;;;;;;0.47;0.30;;;13.80;99.90;;;;;;5038708;28;20623;-79
2023/10/16 14:57:43;;;;;;;0.85;0.47;;;13.70;99.90;;;;;;5044945;28;20217;-78
2023/10/16 15:00:50;;;;;;;1.15;0.38;;;13.70;99.90;;;;;;5043098;28;20261;-79
2023/10/16 15:03:42;;;;;;;1.48;0.40;;;13.70;99.90;;;;;;5048830;28;20232;-78
2023/10/16 15:09:25;;;;;;;0.75;0.45;;;13.60;99.90;;;;;;5032666;28;20188;-78
2023/10/16 15:12:03;;;;;;;0.70;0.40;;;13.60;99.90;;;;;;5035739;28;20185;-79
2023/10/16 15:17:38;;;;;;;0.38;0.30;;;13.70;99.90;;;;;;5008091;28;20233;-80
2023/10/16 15:26:03;;;;;;;0.90;0.40;;;13.60;99.90;;;;;;5018949;28;20194;-79
2023/10/16 15:28:56;;;;;;;1.10;0.50;;;13.50;99.90;;;;;;5015562;28;20197;-79
2023/10/16 15:31:51;;;;;;;1.25;0.52;;;13.40;99.90;;;;;;4994138;28;20203;-79
2023/10/16 15:34:38;;;;;;;0.43;0.40;;;13.30;99.90;;;;;;4993999;28;20222;-79
2023/10/16 15:37:27;;;;;;;1.30;0.43;;;13.30;99.90;;;;;;5000811;28;20321;-78
2023/10/16 15:43:20;;;;;;;0.70;0.38;;;13.30;99.90;;;;;;5047361;23;20229;-79
2023/10/16 15:52:00;;;;;;;0.82;0.40;;;13.30;99.90;;;;;;5001687;28;20218;-79
2023/10/16 15:54:49;;;;;;;1.10;0.50;;;13.30;99.90;;;;;;5038512;28;20270;-77
2023/10/16 15:57:38;;;;;;;1.30;0.50;;;13.40;99.90;;;;;;5054549;28;20234;-78
2023/10/16 16:00:11;;;;;;;1.02;0.40;;;13.20;99.90;;;;;;5055563;28;20211;-78
2023/10/16 16:02:45;;;;;;;2.58;0.60;;;13.30;99.90;;;;;;5054045;28;20196;-78
2023/10/16 16:05:17;;;;;;;1.35;0.50;;;13.20;99.90;;;;;;5060093;28;20230;-77
2023/10/16 16:07:56;;;;;;;0.70;0.38;;;13.10;99.90;;;;;;5060372;28;20200;-78
2023/10/16 16:10:43;;;;;;;2.53;0.40;;;13.10;99.90;;;;;;5066982;28;20228;-78
2023/10/16 16:13:32;;;;;;;1.65;0.63;;;13.20;99.90;;;;;;5048891;28;20743;-78
2023/10/16 16:16:05;;;;;;;2.50;0.60;;;13.10;99.90;;;;;;5074384;28;20226;-78
2023/10/16 16:18:56;;;;;;;0.90;0.47;;;13.10;99.90;;;;;;5062652;28;20591;-78
2023/10/16 16:24:51;;;;;;;1.23;0.45;;;12.90;99.90;;;;;;5033476;28;20267;-79
2023/10/16 16:27:52;;;;;;;1.58;0.45;;;13.00;99.90;;;;;;5033864;28;20219;-79
2023/10/16 16:30:47;;;;;;;1.70;0.50;;;12.90;99.90;;;;;;5053025;28;20245;-79
2023/10/16 16:33:35;;;;;;;1.88;0.40;;;13.00;99.90;;;;;;5072032;28;20200;-78
2023/10/16 16:36:54;;;;;;;0.57;0.38;;;12.90;99.90;;;;;;5070633;28;20200;-78
2023/10/16 16:39:47;;;;;;;1.27;0.43;;;12.90;99.90;;;;;;5069952;28;20258;-78
2023/10/16 16:45:40;;;;;;;2.97;0.60;;;12.90;99.90;;;;;;5016922;28;20638;-77
2023/10/16 16:48:35;;;;;;;2.58;0.60;;;12.90;99.90;;;;;;5033410;28;20287;-78
2023/10/16 16:51:32;;;;;;;1.45;0.57;;;12.80;99.90;;;;;;5044090;28;20194;-78
2023/10/16 16:54:15;;;;;;;2.30;0.47;;;12.80;99.90;;;;;;4998764;28;20568;-78
2023/10/16 16:57:06;;;;;;;0.85;0.50;;;12.80;99.90;;;;;;5013247;28;20190;-78
2023/10/16 17:02:48;;;;;;;2.25;0.70;;;13.00;99.90;;;;;;5027202;28;20189;-78
2023/10/16 17:05:21;;;;;;;2.08;0.70;;;13.00;99.90;;;;;;5033939;28;20247;-77
2023/10/16 17:10:48;;;;;;;1.23;0.55;;;12.90;99.90;;;;;;5042708;28;20276;-77
2023/10/16 17:13:21;;;;;;;1.45;0.52;;;12.90;99.90;;;;;;5028681;28;20209;-77